Mount Gellibrand, Victoria

5:39 AM AEDT on December 23, 2014 (GMT +1100)
Craiglands Dairy | Change Station
CLOSE
Current Station
Personal Weather Station
Location: Larpent, VICTORIA
Elevation: 515 ft
Nearby Weather Stations

Elev 515 ft 38.34 °S, 143.52 °E | Updated 0 second ago

Overcast
Overcast
65.5 °F
Feels Like 65.5 °F
N
49.5
Wind Variable Wind from NNE
Gusts 0.0 mph

Today
High -- | Low -- °F
--% Chance of Precip.
Yesterday
High -- | Low -- °F
Precip. -- in
5:58 AM 8:48 PM
New Moon, 1% visible
Pressure 29.71 in
Visibility 6.2 miles
Clouds Overcast 7100 ft
Dew Point 59 °F
Humidity 80%
Rainfall 0.00 in
Snow Depth Not available.
UV 0 out of 12
Pollen Not available.
Air Quality Not available.
Flu Activity Not available.
METAR YMAV 221800Z AUTO 35006KT 9999 SHRA OVC071 19/18 Q1006

More Conditions Fewer Conditions

Pressure 29.71 in
Visibility 6.2 miles
Clouds Overcast 7100 ft
Dew Point 59 °F
Humidity 80%
Rainfall 0.00 in
Snow Depth Not available.
UV 0 out of 12
Pollen Not available.
Air Quality Not available.
Flu Activity Not available.
METAR YMAV 221800Z AUTO 35006KT 9999 SHRA OVC071 19/18 Q1006

More Conditions Fewer Conditions

10-Day Weather Forecast

Almanac

Astronomy

Dec. 23, 2014 Rise Set
Actual Time
Civil Twilight
Nautical Twilight
Astronomical Twilight
Moon
Length of Visible Light
Length of Day
Tomorrow will be .
, % of the Moon is Illuminated

Today's Extremes

Country Highs Country Lows

Community

WunderPhotos

Upload Photos

1,779,671 photos uploaded!

WunderBlogs® & News

Nearby

Air Quality

  Air Quality AQ Index Pollutant
Not available.

Snow Depth

Station Depth Elevation

Earthquake Activity

City Distance Mag. Time & Date
Minimum magnitude displayed is 2.5.

Coastal Water Temperatures

Place Temperature

Nearby Weather Stations